Time;durP1;ratioP1;P1;durP2;ratioP2;P2;SDS_P1;SDS_P2;PMS_P1;PMS_P2;Temp;Humidity;BMP_temperature;BMP_pressure;BME280_temperature;BME280_humidity;BME280_pressure;Samples;Min_cycle;Max_cycle;Signal;HPM_P1;HPM_P2
2022/11/14 00:00:11;;;;;;;36.92;11.07;;;;;;;5.16;84.78;99569.44;343489;28;1732;-69
2022/11/14 00:00:24;;;;;;;38.58;11.02;;;;;;;5.08;85.18;99563.53;341908;28;1409;-69
2022/11/14 00:00:37;;;;;;;34.83;10.95;;;;;;;5.05;84.66;99568.72;341650;28;1644;-69
2022/11/14 00:00:49;;;;;;;36.55;11.57;;;;;;;5.07;85.31;99564.41;342743;28;1399;-69
2022/11/14 00:01:11;;;;;;;35.83;11.50;;;;;;;5.10;85.35;99564.38;342154;28;1113;-69
2022/11/14 00:01:23;;;;;;;31.58;11.15;;;;;;;5.14;85.48;99568.59;342115;28;1340;-69
2022/11/14 00:01:35;;;;;;;28.13;10.60;;;;;;;5.19;85.49;99565.97;342249;28;1341;-69
2022/11/14 00:01:47;;;;;;;26.73;10.60;;;;;;;5.17;85.56;99566.00;342316;28;1099;-69
2022/11/14 00:01:59;;;;;;;30.55;10.70;;;;;;;5.19;85.29;99574.56;342576;28;1328;-69
2022/11/14 00:02:11;;;;;;;33.67;10.52;;;;;;;5.27;84.86;99571.03;342483;28;1105;-69
2022/11/14 00:02:25;;;;;;;55.33;11.00;;;;;;;5.28;84.77;99567.59;342009;28;1299;-69
2022/11/14 00:02:38;;;;;;;56.10;11.55;;;;;;;5.27;84.77;99568.47;342167;28;1052;-69
2022/11/14 00:02:50;;;;;;;30.40;10.60;;;;;;;5.33;84.82;99565.81;340833;29;1215;-69
2022/11/14 00:03:04;;;;;;;28.05;10.75;;;;;;;5.34;84.86;99568.38;341229;29;730;-69
2022/11/14 00:03:16;;;;;;;26.38;9.90;;;;;;;5.38;85.35;99564.03;341548;28;1689;-69
2022/11/14 00:03:28;;;;;;;36.72;10.10;;;;;;;5.41;85.09;99563.97;343640;28;1793;-69
2022/11/14 00:03:40;;;;;;;39.33;10.13;;;;;;;5.45;84.18;99557.91;343171;28;1046;-69
2022/11/14 00:03:52;;;;;;;33.55;10.07;;;;;;;5.46;84.56;99562.19;343308;28;1031;-69
2022/11/14 00:04:04;;;;;;;36.83;9.98;;;;;;;5.49;84.58;99559.56;343460;28;1023;-69
2022/11/14 00:04:16;;;;;;;35.55;9.90;;;;;;;5.51;84.24;99560.41;344866;28;1364;-69
2022/11/14 00:04:28;;;;;;;28.08;9.98;;;;;;;5.55;84.12;99564.66;343434;28;1242;-69
2022/11/14 00:04:40;;;;;;;26.60;9.70;;;;;;;5.60;84.08;99555.13;343424;28;1034;-69
2022/11/14 00:04:53;;;;;;;25.80;9.50;;;;;;;5.64;83.63;99560.25;343409;28;1196;-69
2022/11/14 00:05:06;;;;;;;23.40;9.43;;;;;;;5.68;83.52;99556.75;343598;28;1106;-69
2022/11/14 00:05:19;;;;;;;24.10;9.23;;;;;;;5.71;84.04;99562.69;343972;28;1471;-69
2022/11/14 00:05:32;;;;;;;24.75;9.35;;;;;;;5.76;83.69;99562.66;343844;28;1786;-69
2022/11/14 00:05:45;;;;;;;25.95;9.65;;;;;;;5.78;83.84;99558.34;344863;28;1864;-70
2022/11/14 00:05:57;;;;;;;29.98;10.43;;;;;;;5.78;83.06;99555.75;344652;28;1257;-69
2022/11/14 00:06:09;;;;;;;30.48;10.30;;;;;;;5.65;82.79;99562.78;344773;28;1165;-69
2022/11/14 00:06:20;;;;;;;30.73;10.77;;;;;;;5.60;81.77;99560.28;343858;28;1402;-69
2022/11/14 00:06:32;;;;;;;32.10;10.88;;;;;;;5.56;82.19;99561.19;343490;28;1087;-69
2022/11/14 00:06:44;;;;;;;33.15;11.07;;;;;;;5.57;81.78;99559.47;342109;28;1119;-69
2022/11/14 00:06:56;;;;;;;28.05;10.35;;;;;;;5.64;82.27;99565.41;342045;28;2146;-69
2022/11/14 00:07:08;;;;;;;29.23;10.57;;;;;;;5.61;81.47;99566.28;342126;28;1055;-69
2022/11/14 00:07:20;;;;;;;33.13;10.52;;;;;;;5.59;81.83;99562.88;342375;28;1423;-69
2022/11/14 00:07:33;;;;;;;32.30;10.35;;;;;;;5.48;81.66;99555.31;343386;28;1110;-69
2022/11/14 00:07:46;;;;;;;27.65;9.85;;;;;;;5.55;81.64;99562.09;342158;28;1136;-69
2022/11/14 00:07:58;;;;;;;26.52;9.85;;;;;;;5.60;82.08;99567.19;340846;29;1329;-69
2022/11/14 00:08:24;;;;;;;18.63;9.37;;;;;;;5.69;81.87;99558.44;340707;29;1024;-69
2022/11/14 00:08:35;;;;;;;19.73;9.68;;;;;;;5.72;81.98;99559.28;342063;28;1831;-69
2022/11/14 00:08:47;;;;;;;26.02;10.93;;;;;;;5.74;82.80;99561.84;342799;28;1709;-69
2022/11/14 00:08:59;;;;;;;25.52;11.38;;;;;;;5.76;82.35;99554.91;343438;28;1197;-69
2022/11/14 00:09:11;;;;;;;25.42;10.95;;;;;;;5.79;82.98;99555.75;341927;28;1843;-69
2022/11/14 00:09:27;;;;;;;25.80;10.57;;;;;;;5.84;82.76;99563.41;342040;28;1642;-69
2022/11/14 00:09:41;;;;;;;26.50;10.60;;;;;;;5.89;82.26;99561.59;342060;28;958;-69
2022/11/14 00:09:53;;;;;;;28.77;11.02;;;;;;;5.94;82.25;99558.97;340966;28;1893;-69
2022/11/14 00:10:06;;;;;;;43.72;11.73;;;;;;;5.96;82.41;99560.66;340985;28;1231;-69
2022/11/14 00:10:18;;;;;;;51.97;12.35;;;;;;;5.96;82.10;99560.66;341213;28;1200;-69
2022/11/14 00:10:30;;;;;;;50.08;12.13;;;;;;;5.98;81.72;99566.66;341899;28;2164;-69
2022/11/14 00:10:45;;;;;;;38.50;11.18;;;;;;;6.00;82.00;99561.47;341165;28;1098;-69
2022/11/14 00:10:57;;;;;;;32.15;9.90;;;;;;;6.03;81.82;99560.56;342107;28;1195;-69
2022/11/14 00:11:09;;;;;;;28.80;9.57;;;;;;;6.06;81.63;99565.69;342335;28;1425;-69
2022/11/14 00:11:21;;;;;;;22.33;9.73;;;;;;;6.04;81.69;99565.72;342100;28;1259;-69
2022/11/14 00:11:33;;;;;;;23.25;9.98;;;;;;;6.04;82.37;99562.25;342203;28;1131;-69
2022/11/14 00:11:45;;;;;;;22.40;10.02;;;;;;;6.05;81.51;99571.72;342154;28;1153;-69
2022/11/14 00:11:57;;;;;;;29.65;10.10;;;;;;;6.06;81.54;99574.28;342359;28;1132;-69
2022/11/14 00:12:09;;;;;;;31.83;10.52;;;;;;;6.00;81.87;99566.63;342248;28;1060;-69
2022/11/14 00:12:21;;;;;;;27.33;10.55;;;;;;;6.02;82.54;99571.75;342241;28;1280;-69
2022/11/14 00:12:34;;;;;;;48.80;10.90;;;;;;;5.99;82.51;99572.66;341000;28;1822;-69
2022/11/14 00:12:46;;;;;;;48.95;10.73;;;;;;;5.82;82.07;99567.72;341295;28;2351;-69
2022/11/14 00:12:58;;;;;;;52.78;10.77;;;;;;;5.73;82.81;99570.44;343087;28;1828;-69
2022/11/14 00:13:09;;;;;;;38.20;10.90;;;;;;;5.71;82.95;99569.59;343032;28;1784;-69
2022/11/14 00:13:21;;;;;;;33.80;10.93;;;;;;;5.67;82.83;99573.94;343609;28;1874;-69
2022/11/14 00:13:34;;;;;;;32.75;10.75;;;;;;;5.70;83.44;99570.50;343882;28;1110;-69
2022/11/14 00:13:46;;;;;;;30.23;10.38;;;;;;;5.61;83.35;99576.59;343727;28;1117;-69
2022/11/14 00:13:58;;;;;;;30.73;10.35;;;;;;;5.55;83.29;99574.97;343674;28;1346;-69
2022/11/14 00:14:10;;;;;;;38.30;10.73;;;;;;;5.56;83.69;99575.84;342459;28;1669;-69
2022/11/14 00:14:22;;;;;;;37.60;10.55;;;;;;;5.57;84.23;99575.81;342768;28;1591;-69
2022/11/14 00:14:34;;;;;;;35.63;10.52;;;;;;;5.58;83.87;99574.94;343206;28;1159;-69
2022/11/14 00:14:46;;;;;;;31.77;10.20;;;;;;;5.64;83.70;99575.72;342634;28;1031;-69
2022/11/14 00:14:58;;;;;;;29.63;10.45;;;;;;;5.62;83.85;99577.47;341991;28;1074;-69
2022/11/14 00:15:11;;;;;;;35.70;10.60;;;;;;;5.64;84.10;99575.72;342403;28;1760;-69
2022/11/14 00:15:23;;;;;;;39.10;10.50;;;;;;;5.62;84.35;99572.31;342641;28;1451;-69
2022/11/14 00:15:35;;;;;;;37.10;10.45;;;;;;;5.63;84.05;99568.84;342592;28;1509;-69
2022/11/14 00:15:49;;;;;;;34.30;10.63;;;;;;;5.67;83.42;99573.94;343803;28;1256;-68
2022/11/14 00:16:01;;;;;;;32.83;10.52;;;;;;;5.69;83.90;99576.50;342809;28;2087;-69
2022/11/14 00:16:13;;;;;;;39.33;10.23;;;;;;;5.73;83.86;99578.16;342700;28;2101;-69
2022/11/14 00:16:25;;;;;;;42.33;10.38;;;;;;;5.76;83.43;99575.56;342140;28;1643;-68
2022/11/14 00:16:36;;;;;;;34.05;10.10;;;;;;;5.77;83.46;99577.25;342238;28;1084;-69
2022/11/14 00:16:48;;;;;;;25.45;9.85;;;;;;;5.80;83.64;99579.78;342793;28;1995;-69
2022/11/14 00:17:00;;;;;;;23.40;9.57;;;;;;;5.81;83.58;99576.31;343498;28;1087;-69
2022/11/14 00:17:12;;;;;;;28.13;9.80;;;;;;;5.84;83.70;99578.03;343101;28;1404;-69
2022/11/14 00:17:24;;;;;;;34.75;9.90;;;;;;;5.84;82.83;99573.72;342191;28;1265;-69
2022/11/14 00:17:37;;;;;;;30.05;10.18;;;;;;;5.84;82.99;99578.88;342166;28;1112;-69
2022/11/14 00:17:49;;;;;;;27.50;10.23;;;;;;;5.88;83.06;99577.97;342973;28;1773;-69
2022/11/14 00:18:01;;;;;;;33.72;10.35;;;;;;;5.84;82.42;99578.88;342223;28;1286;-69
2022/11/14 00:18:13;;;;;;;38.78;10.20;;;;;;;5.85;82.34;99584.88;343066;28;1413;-69
2022/11/14 00:18:24;;;;;;;36.35;10.00;;;;;;;5.76;82.28;99572.97;342329;28;1300;-69
2022/11/14 00:18:36;;;;;;;32.80;9.85;;;;;;;5.69;81.32;99579.09;342480;28;750;-68
2022/11/14 00:18:48;;;;;;;33.72;10.23;;;;;;;5.66;81.72;99579.13;342448;28;1304;-69
2022/11/14 00:19:00;;;;;;;39.15;10.55;;;;;;;5.61;81.09;99574.03;341487;28;1555;-69
2022/11/14 00:19:13;;;;;;;39.42;10.82;;;;;;;5.60;81.23;99578.34;340908;29;960;-69
2022/11/14 00:19:24;;;;;;;40.92;11.05;;;;;;;5.58;80.17;99580.09;341726;28;1327;-69
2022/11/14 00:19:36;;;;;;;39.55;10.85;;;;;;;5.52;79.69;99580.16;341934;28;1072;-69
2022/11/14 00:19:48;;;;;;;37.08;10.68;;;;;;;5.44;79.39;99582.00;342055;28;1051;-69
2022/11/14 00:20:01;;;;;;;32.05;10.25;;;;;;;5.43;79.90;99582.84;341085;29;1140;-69
2022/11/14 00:20:13;;;;;;;30.48;10.48;;;;;;;5.45;80.91;99578.53;340902;29;1298;-69
2022/11/14 00:20:25;;;;;;;27.92;10.00;;;;;;;5.49;80.68;99576.78;341948;28;2110;-69
2022/11/14 00:20:37;;;;;;;23.35;9.60;;;;;;;5.51;81.24;99578.44;344401;28;1361;-69
2022/11/14 00:20:50;;;;;;;26.58;9.52;;;;;;;5.51;81.70;99582.75;343059;28;1802;-69
2022/11/14 00:21:02;;;;;;;30.75;10.07;;;;;;;5.57;81.75;99580.97;342838;28;2214;-69
2022/11/14 00:21:14;;;;;;;25.95;10.45;;;;;;;5.59;81.50;99579.22;344767;28;1248;-69
2022/11/14 00:21:26;;;;;;;27.90;10.55;;;;;;;5.65;82.02;99582.56;342211;28;1056;-70
2022/11/14 00:21:38;;;;;;;30.15;10.77;;;;;;;5.69;82.24;99573.94;342009;28;1026;-69
2022/11/14 00:21:52;;;;;;;32.72;11.05;;;;;;;5.72;81.78;99584.22;342224;28;1000;-70
2022/11/14 00:22:04;;;;;;;34.65;11.13;;;;;;;5.75;82.23;99576.41;343958;28;1980;-69
2022/11/14 00:22:16;;;;;;;33.10;11.02;;;;;;;5.75;82.19;99582.41;344609;28;1229;-69
2022/11/14 00:22:28;;;;;;;37.42;11.50;;;;;;;5.75;83.06;99576.41;342772;28;1234;-69
2022/11/14 00:22:40;;;;;;;37.58;11.32;;;;;;;5.77;82.91;99572.09;342455;28;1043;-69
2022/11/14 00:22:52;;;;;;;41.60;11.45;;;;;;;5.76;82.55;99576.41;343276;28;1211;-69
2022/11/14 00:23:04;;;;;;;35.53;10.65;;;;;;;5.78;82.86;99584.13;342852;28;2102;-69
2022/11/14 00:23:17;;;;;;;27.63;10.43;;;;;;;5.79;82.66;99580.66;342284;28;1303;-69
2022/11/14 00:23:29;;;;;;;21.85;10.50;;;;;;;5.77;83.19;99574.66;343498;28;1035;-69
2022/11/14 00:23:41;;;;;;;21.80;10.57;;;;;;;5.77;82.85;99579.81;342777;28;1079;-69
2022/11/14 00:23:53;;;;;;;24.75;11.10;;;;;;;5.76;82.73;99578.13;341953;28;1388;-69
2022/11/14 00:24:05;;;;;;;28.48;11.30;;;;;;;5.79;82.77;99578.06;340782;29;1039;-69
2022/11/14 00:24:17;;;;;;;32.85;11.18;;;;;;;5.84;83.35;99578.88;340821;29;1286;-69
2022/11/14 00:24:29;;;;;;;32.75;11.18;;;;;;;5.86;82.91;99578.88;341265;28;1207;-69
2022/11/14 00:24:41;;;;;;;37.72;11.10;;;;;;;5.88;83.34;99583.13;341864;28;1053;-69
2022/11/14 00:24:53;;;;;;;33.40;11.00;;;;;;;5.88;83.29;99574.53;342272;28;1303;-69
2022/11/14 00:25:05;;;;;;;31.48;10.50;;;;;;;5.95;83.20;99577.00;341458;28;1654;-69
2022/11/14 00:25:17;;;;;;;24.20;10.35;;;;;;;5.98;82.67;99571.81;341421;28;1672;-70
2022/11/14 00:25:29;;;;;;;23.83;9.80;;;;;;;6.00;82.17;99575.22;342149;28;1187;-69
2022/11/14 00:25:43;;;;;;;24.83;9.90;;;;;;;6.03;82.44;99573.47;341872;28;1143;-69
2022/11/14 00:25:55;;;;;;;23.67;10.35;;;;;;;6.07;82.08;99575.13;342123;28;1071;-69
2022/11/14 00:26:06;;;;;;;22.05;11.00;;;;;;;6.09;82.27;99578.53;342148;28;1252;-70
2022/11/14 00:26:18;;;;;;;22.20;11.00;;;;;;;6.08;81.94;99577.69;341988;28;1405;-69
2022/11/14 00:26:30;;;;;;;28.95;11.13;;;;;;;6.12;81.66;99573.34;342228;28;1290;-69
2022/11/14 00:26:42;;;;;;;29.33;11.27;;;;;;;6.12;82.30;99568.19;340966;28;1837;-70
2022/11/14 00:26:54;;;;;;;27.17;11.00;;;;;;;6.12;82.10;99578.50;341073;28;1055;-69
2022/11/14 00:27:06;;;;;;;23.67;11.18;;;;;;;6.15;81.92;99573.28;341785;28;1258;-69
2022/11/14 00:27:18;;;;;;;25.52;11.00;;;;;;;6.17;81.42;99576.69;342268;28;1301;-69
2022/11/14 00:27:30;;;;;;;29.85;11.20;;;;;;;6.19;81.96;99572.34;342188;28;1055;-69
2022/11/14 00:27:42;;;;;;;27.35;11.15;;;;;;;6.18;82.12;99573.25;342287;28;1025;-70
2022/11/14 00:27:58;;;;;;;25.77;11.10;;;;;;;6.14;81.24;99579.34;341729;28;1640;-69
2022/11/14 00:28:10;;;;;;;26.45;11.20;;;;;;;6.10;81.42;99575.09;341579;28;1821;-69
2022/11/14 00:28:21;;;;;;;23.80;10.88;;;;;;;6.15;81.37;99574.13;342082;28;1212;-69
2022/11/14 00:28:33;;;;;;;25.95;10.95;;;;;;;6.16;81.32;99575.00;342339;28;1201;-69
2022/11/14 00:28:45;;;;;;;27.13;10.77;;;;;;;6.15;81.75;99573.28;341934;28;1308;-69
2022/11/14 00:28:57;;;;;;;28.07;10.93;;;;;;;6.13;81.79;99572.44;342298;28;1235;-69
2022/11/14 00:29:15;;;;;;;26.42;10.38;;;;;;;6.15;81.66;99570.69;341970;28;1027;-69
2022/11/14 00:29:27;;;;;;;23.35;10.57;;;;;;;6.15;81.45;99573.28;340992;28;1031;-69
2022/11/14 00:29:39;;;;;;;26.33;11.00;;;;;;;6.16;81.89;99569.84;341028;28;1007;-69
2022/11/14 00:29:51;;;;;;;28.33;10.73;;;;;;;6.19;81.77;99569.75;340965;28;1195;-69
2022/11/14 00:30:04;;;;;;;29.90;10.38;;;;;;;6.21;81.56;99573.19;341222;28;1853;-69
2022/11/14 00:30:16;;;;;;;27.38;10.63;;;;;;;6.24;81.29;99577.44;341941;28;1622;-70
2022/11/14 00:30:28;;;;;;;30.40;10.80;;;;;;;6.24;81.02;99567.97;343596;28;1101;-69
2022/11/14 00:30:40;;;;;;;23.40;10.68;;;;;;;6.28;81.23;99572.22;343579;28;1636;-70
2022/11/14 00:30:52;;;;;;;24.35;10.60;;;;;;;6.28;80.92;99574.78;342301;28;1258;-70
2022/11/14 00:31:04;;;;;;;20.77;10.63;;;;;;;6.29;81.48;99571.31;341851;28;1577;-69
2022/11/14 00:31:16;;;;;;;26.00;10.82;;;;;;;6.27;81.11;99569.66;341978;28;1337;-70
2022/11/14 00:31:28;;;;;;;33.03;10.85;;;;;;;6.28;81.15;99572.22;342237;28;1048;-69
2022/11/14 00:31:41;;;;;;;31.83;10.75;;;;;;;6.31;81.18;99574.72;342272;28;1108;-69
2022/11/14 00:31:53;;;;;;;19.38;10.23;;;;;;;6.31;80.73;99574.72;341835;28;1262;-69
2022/11/14 00:32:05;;;;;;;17.88;9.57;;;;;;;6.33;80.60;99575.56;342147;28;1023;-69
2022/11/14 00:32:17;;;;;;;17.15;9.70;;;;;;;6.35;81.02;99571.22;342249;28;1313;-70
2022/11/14 00:32:30;;;;;;;17.88;10.68;;;;;;;6.36;80.52;99572.94;342267;28;1067;-69
2022/11/14 00:32:42;;;;;;;18.70;11.15;;;;;;;6.37;80.35;99573.78;342303;28;1071;-69
2022/11/14 00:32:54;;;;;;;19.70;10.98;;;;;;;6.37;80.31;99579.78;342784;28;1090;-69
2022/11/14 00:33:06;;;;;;;19.65;10.77;;;;;;;6.39;80.01;99572.03;342967;28;1957;-69
2022/11/14 00:33:19;;;;;;;19.15;10.65;;;;;;;6.39;80.50;99578.03;343445;28;1267;-69
2022/11/14 00:33:31;;;;;;;15.90;10.50;;;;;;;6.37;80.81;99579.78;343263;28;1238;-69
2022/11/14 00:33:43;;;;;;;17.67;10.30;;;;;;;6.39;80.29;99575.44;341039;28;1851;-69
2022/11/14 00:33:55;;;;;;;18.77;10.30;;;;;;;6.40;80.97;99579.75;342067;28;1307;-69
2022/11/14 00:34:08;;;;;;;21.58;10.70;;;;;;;6.40;80.61;99572.00;341636;28;1899;-69
2022/11/14 00:34:19;;;;;;;21.58;10.90;;;;;;;6.37;80.78;99574.63;341466;28;1509;-69
2022/11/14 00:34:32;;;;;;;19.95;10.93;;;;;;;6.38;80.95;99576.34;342300;28;1019;-69
2022/11/14 00:34:44;;;;;;;19.83;10.57;;;;;;;6.39;81.01;99572.88;341844;28;1062;-69
2022/11/14 00:34:56;;;;;;;23.83;10.50;;;;;;;6.40;80.97;99574.59;341038;29;1176;-69
2022/11/14 00:35:08;;;;;;;21.45;10.30;;;;;;;6.41;80.32;99575.44;341270;28;2097;-69
2022/11/14 00:35:23;;;;;;;18.13;10.20;;;;;;;6.41;80.92;99570.25;341427;28;1667;-69
2022/11/14 00:35:35;;;;;;;17.75;10.65;;;;;;;6.43;80.45;99576.25;343665;28;1829;-70
2022/11/14 00:35:54;;;;;;;24.02;11.15;;;;;;;6.44;80.94;99579.69;343291;28;1192;-69
2022/11/14 00:36:06;;;;;;;22.42;10.43;;;;;;;6.46;80.13;99577.94;340685;28;1768;-69
2022/11/14 00:36:18;;;;;;;16.17;9.95;;;;;;;6.46;80.55;99577.94;341648;28;1357;-70
2022/11/14 00:36:30;;;;;;;16.38;10.18;;;;;;;6.47;80.13;99574.47;342288;28;1204;-69
2022/11/14 00:36:42;;;;;;;17.65;10.32;;;;;;;6.48;80.29;99568.44;343791;28;1315;-69
2022/11/14 00:36:54;;;;;;;17.92;10.15;;;;;;;6.50;79.82;99569.25;343579;28;1185;-69
2022/11/14 00:37:06;;;;;;;16.67;10.05;;;;;;;6.52;80.15;99572.66;343448;28;1066;-69
2022/11/14 00:37:18;;;;;;;18.63;10.25;;;;;;;6.50;79.87;99571.84;342115;28;1726;-69
2022/11/14 00:37:30;;;;;;;21.33;10.77;;;;;;;6.49;79.94;99567.56;342129;28;1083;-69
2022/11/14 00:37:42;;;;;;;20.30;11.02;;;;;;;6.47;80.09;99564.16;342119;28;1215;-69
2022/11/14 00:37:54;;;;;;;18.27;10.80;;;;;;;6.49;80.07;99572.72;342284;28;1167;-69
2022/11/14 00:38:06;;;;;;;17.70;10.68;;;;;;;6.50;80.21;99569.25;341645;28;1593;-70
2022/11/14 00:38:18;;;;;;;17.92;10.63;;;;;;;6.50;79.97;99569.25;342708;28;2028;-70
2022/11/14 00:38:29;;;;;;;20.38;11.07;;;;;;;6.49;79.96;99568.41;343373;28;1072;-69
2022/11/14 00:38:42;;;;;;;21.47;11.03;;;;;;;6.47;80.20;99575.31;343396;28;1948;-70
2022/11/14 00:38:54;;;;;;;19.73;10.70;;;;;;;6.49;80.64;99572.72;342770;28;1727;-69
2022/11/14 00:39:08;;;;;;;20.48;10.88;;;;;;;6.50;80.04;99569.25;341875;28;1372;-69
2022/11/14 00:39:20;;;;;;;20.58;10.75;;;;;;;6.50;80.58;99566.66;342205;28;1660;-69
2022/11/14 00:39:32;;;;;;;18.63;10.70;;;;;;;6.51;80.42;99566.66;344002;28;1147;-70
2022/11/14 00:39:44;;;;;;;19.05;10.90;;;;;;;6.52;80.50;99567.50;344887;28;1164;-69
2022/11/14 00:39:56;;;;;;;18.02;11.07;;;;;;;6.54;80.02;99570.91;345046;28;1301;-69
2022/11/14 00:40:08;;;;;;;16.98;10.75;;;;;;;6.55;80.50;99567.44;344394;28;2449;-69
2022/11/14 00:40:21;;;;;;;15.60;10.77;;;;;;;6.54;80.66;99568.31;342665;28;1422;-69
2022/11/14 00:40:33;;;;;;;15.27;10.57;;;;;;;6.53;80.33;99569.22;342133;28;1465;-69
2022/11/14 00:40:44;;;;;;;15.38;10.38;;;;;;;6.53;80.18;99569.22;342390;28;997;-70
2022/11/14 00:40:56;;;;;;;19.23;10.30;;;;;;;6.54;80.63;99565.72;340959;28;1793;-69
2022/11/14 00:41:08;;;;;;;18.60;9.90;;;;;;;6.56;79.93;99563.97;343452;28;1507;-69
2022/11/14 00:41:20;;;;;;;19.55;10.02;;;;;;;6.58;80.11;99567.41;342714;28;1279;-69
2022/11/14 00:41:32;;;;;;;20.02;10.52;;;;;;;6.56;79.91;99569.13;342720;28;1617;-69
2022/11/14 00:41:44;;;;;;;23.83;10.65;;;;;;;6.56;80.08;99569.13;339510;29;1109;-69
2022/11/14 00:41:56;;;;;;;21.58;10.48;;;;;;;6.56;79.60;99569.13;339538;29;1082;-69
2022/11/14 00:42:08;;;;;;;21.48;10.55;;;;;;;6.55;80.13;99563.13;338098;29;1851;-69
2022/11/14 00:42:20;;;;;;;17.37;10.47;;;;;;;6.57;79.73;99566.53;339178;29;1589;-69
2022/11/14 00:42:33;;;;;;;17.38;10.32;;;;;;;6.58;79.51;99568.25;339875;28;1920;-69
2022/11/14 00:42:45;;;;;;;19.20;10.38;;;;;;;6.56;79.63;99570.00;340723;29;1044;-69
2022/11/14 00:42:57;;;;;;;19.45;10.27;;;;;;;6.58;79.58;99564.84;339286;29;1851;-69
2022/11/14 00:43:09;;;;;;;17.55;10.18;;;;;;;6.58;80.02;99568.25;340264;29;1271;-69
2022/11/14 00:43:21;;;;;;;15.90;10.27;;;;;;;6.60;79.55;99563.91;340459;28;1073;-70
2022/11/14 00:43:33;;;;;;;16.98;10.35;;;;;;;6.62;79.74;99569.06;340992;28;1471;-69
2022/11/14 00:43:45;;;;;;;16.05;10.35;;;;;;;6.63;79.91;99565.59;341338;28;1369;-70
2022/11/14 00:43:57;;;;;;;16.75;10.48;;;;;;;6.61;79.64;99559.59;341996;28;1021;-69
2022/11/14 00:44:10;;;;;;;17.95;10.40;;;;;;;6.62;79.41;99566.47;342076;28;1055;-69
2022/11/14 00:44:22;;;;;;;18.30;10.30;;;;;;;6.63;80.02;99569.91;342325;28;2556;-70
2022/11/14 00:44:34;;;;;;;16.85;10.48;;;;;;;6.63;79.65;99565.59;342161;28;1144;-69
2022/11/14 00:44:46;;;;;;;15.93;10.40;;;;;;;6.63;79.64;99565.59;342347;28;1094;-69
2022/11/14 00:44:58;;;;;;;17.85;10.57;;;;;;;6.63;80.13;99565.59;342223;28;1326;-67
2022/11/14 00:45:10;;;;;;;17.90;10.18;;;;;;;6.65;79.70;99566.41;342342;28;1119;-67
2022/11/14 00:45:22;;;;;;;16.30;9.98;;;;;;;6.64;80.16;99567.31;341945;28;1493;-67
2022/11/14 00:45:34;;;;;;;15.55;9.65;;;;;;;6.66;79.33;99560.38;343469;28;1127;-69
2022/11/14 00:45:47;;;;;;;15.85;10.00;;;;;;;6.67;79.94;99559.47;343531;28;1042;-69
2022/11/14 00:45:58;;;;;;;16.27;10.05;;;;;;;6.68;79.61;99562.91;342607;28;1760;-69
2022/11/14 00:46:11;;;;;;;14.65;9.68;;;;;;;6.70;79.33;99562.03;342344;28;1077;-69
2022/11/14 00:46:23;;;;;;;14.48;9.68;;;;;;;6.71;79.54;99561.13;342223;28;1467;-69
2022/11/14 00:46:34;;;;;;;15.40;9.48;;;;;;;6.72;79.21;99562.84;340745;28;1426;-69
2022/11/14 00:46:46;;;;;;;15.80;9.40;;;;;;;6.73;79.12;99564.53;340768;29;1056;-70
2022/11/14 00:46:58;;;;;;;14.70;9.45;;;;;;;6.74;79.03;99563.66;340997;29;1050;-69
2022/11/14 00:47:10;;;;;;;15.63;9.63;;;;;;;6.77;78.95;99561.00;341207;28;1056;-70
2022/11/14 00:47:22;;;;;;;15.80;9.73;;;;;;;6.80;78.91;99563.56;341552;28;1247;-69
2022/11/14 00:47:34;;;;;;;15.85;9.65;;;;;;;6.80;78.99;99563.56;342113;28;1740;-69
2022/11/14 00:47:46;;;;;;;14.93;9.70;;;;;;;6.80;78.68;99567.84;342323;28;1039;-69
2022/11/14 00:47:58;;;;;;;14.68;9.93;;;;;;;6.82;78.59;99565.25;343318;28;1439;-70
2022/11/14 00:48:10;;;;;;;13.90;9.68;;;;;;;6.86;78.46;99561.72;342912;28;2139;-69
2022/11/14 00:48:22;;;;;;;14.52;9.77;;;;;;;6.85;78.60;99560.88;341350;28;1242;-70
2022/11/14 00:48:34;;;;;;;15.73;10.27;;;;;;;6.86;78.29;99561.72;342048;28;1019;-69
2022/11/14 00:48:46;;;;;;;15.73;10.00;;;;;;;6.85;78.25;99560.03;341692;28;1028;-69
2022/11/14 00:48:57;;;;;;;15.98;9.73;;;;;;;6.83;78.28;99561.78;341888;28;1242;-70
2022/11/14 00:49:09;;;;;;;15.93;9.85;;;;;;;6.85;78.54;99565.19;340326;29;1043;-70
2022/11/14 00:49:21;;;;;;;13.77;9.75;;;;;;;6.84;78.18;99564.34;340832;28;1296;-69
2022/11/14 00:49:34;;;;;;;13.90;9.57;;;;;;;6.85;78.30;99560.03;339712;29;910;-69
2022/11/14 00:49:46;;;;;;;14.43;9.55;;;;;;;6.84;78.49;99560.91;340023;29;1260;-69
2022/11/14 00:49:58;;;;;;;14.32;9.80;;;;;;;6.84;78.56;99563.47;341190;29;738;-70
2022/11/14 00:50:10;;;;;;;14.07;9.43;;;;;;;6.82;78.53;99562.66;340552;28;1523;-70
2022/11/14 00:50:22;;;;;;;14.50;9.68;;;;;;;6.81;78.04;99564.41;341882;28;2080;-69
2022/11/14 00:50:34;;;;;;;15.52;9.80;;;;;;;6.79;78.63;99561.00;341907;28;1162;-69
2022/11/14 00:50:46;;;;;;;15.35;9.98;;;;;;;6.77;79.00;99557.59;341704;28;1201;-69
2022/11/14 00:50:58;;;;;;;15.73;10.35;;;;;;;6.76;78.92;99561.91;341663;28;1267;-69
2022/11/14 00:51:10;;;;;;;15.57;10.45;;;;;;;6.77;78.52;99552.41;340907;28;1039;-69
2022/11/14 00:51:22;;;;;;;16.10;10.05;;;;;;;6.77;78.74;99558.44;341586;28;1912;-69
2022/11/14 00:51:34;;;;;;;15.55;9.98;;;;;;;6.78;79.20;99548.94;342165;28;1360;-69
2022/11/14 00:51:46;;;;;;;16.30;9.90;;;;;;;6.79;78.92;99556.66;341558;28;1656;-69
2022/11/14 00:51:58;;;;;;;15.57;9.63;;;;;;;6.79;78.30;99559.25;342166;28;1253;-69
2022/11/14 00:52:10;;;;;;;16.92;9.90;;;;;;;6.80;78.15;99553.22;342116;28;996;-69
2022/11/14 00:52:22;;;;;;;15.30;9.88;;;;;;;6.80;78.81;99554.94;341895;28;1258;-70
2022/11/14 00:52:33;;;;;;;16.48;9.75;;;;;;;6.80;78.19;99558.38;342060;28;1099;-70
2022/11/14 00:52:45;;;;;;;14.90;9.40;;;;;;;6.80;78.66;99552.34;342111;28;1072;-69
2022/11/14 00:52:57;;;;;;;14.88;9.38;;;;;;;6.79;78.37;99554.09;341935;28;1211;-70
2022/11/14 00:53:09;;;;;;;13.55;9.43;;;;;;;6.79;78.62;99556.66;341946;28;1103;-69
2022/11/14 00:53:21;;;;;;;13.75;9.65;;;;;;;6.82;78.50;99552.31;342046;28;1269;-69
2022/11/14 00:53:33;;;;;;;12.98;9.50;;;;;;;6.82;78.34;99555.75;342031;28;1362;-70
2022/11/14 00:53:45;;;;;;;12.60;9.50;;;;;;;6.82;78.42;99553.16;342190;28;1063;-69
2022/11/14 00:53:57;;;;;;;13.35;9.45;;;;;;;6.83;78.16;99546.28;341495;28;1628;-69
2022/11/14 00:54:09;;;;;;;14.27;9.27;;;;;;;6.82;78.21;99550.59;342137;28;1130;-70
2022/11/14 00:54:21;;;;;;;14.20;9.20;;;;;;;6.82;78.08;99549.75;341954;28;1358;-70
2022/11/14 00:54:33;;;;;;;13.57;9.27;;;;;;;6.80;77.99;99555.81;342088;28;1103;-69
2022/11/14 00:54:45;;;;;;;13.38;9.35;;;;;;;6.82;77.98;99553.16;342170;28;1106;-69
2022/11/14 00:54:57;;;;;;;13.77;9.63;;;;;;;6.82;78.12;99553.16;341995;28;1103;-69
2022/11/14 00:55:09;;;;;;;14.57;9.88;;;;;;;6.80;77.94;99548.06;341888;28;1335;-69
2022/11/14 00:55:21;;;;;;;14.80;9.60;;;;;;;6.77;77.93;99548.09;341690;28;2248;-69
2022/11/14 00:55:33;;;;;;;15.25;9.85;;;;;;;6.78;78.18;99548.94;339373;29;1196;-69
2022/11/14 00:55:45;;;;;;;13.23;9.27;;;;;;;6.76;78.23;99554.16;339369;29;1291;-70
2022/11/14 00:55:57;;;;;;;12.40;8.90;;;;;;;6.78;78.59;99552.41;340717;29;1181;-69
2022/11/14 00:56:09;;;;;;;13.70;9.13;;;;;;;6.76;78.09;99550.69;340760;29;1075;-70
2022/11/14 00:56:21;;;;;;;14.20;9.48;;;;;;;6.69;78.04;99549.97;341323;28;1477;-69
2022/11/14 00:56:33;;;;;;;13.25;9.35;;;;;;;6.67;78.05;99556.06;342275;28;1070;-69
2022/11/14 00:56:45;;;;;;;14.13;9.43;;;;;;;6.62;77.92;99553.56;342200;28;1278;-69
2022/11/14 00:56:57;;;;;;;14.52;9.60;;;;;;;6.56;78.62;99553.66;341827;28;1063;-70
2022/11/14 00:57:09;;;;;;;13.73;9.70;;;;;;;6.53;78.72;99551.13;341864;28;1096;-70
2022/11/14 00:57:21;;;;;;;13.93;9.55;;;;;;;6.50;78.57;99549.47;341039;28;1697;-69
2022/11/14 00:57:33;;;;;;;14.35;9.57;;;;;;;6.55;78.69;99546.78;340682;28;1096;-69
2022/11/14 00:57:44;;;;;;;14.93;9.95;;;;;;;6.54;79.04;99545.06;341805;28;1261;-69
2022/11/14 00:57:56;;;;;;;14.32;9.57;;;;;;;6.52;78.83;99550.28;340752;28;1094;-69
2022/11/14 00:58:08;;;;;;;13.77;9.50;;;;;;;6.52;78.86;99554.59;340904;28;1302;-69
2022/11/14 00:58:20;;;;;;;14.43;9.45;;;;;;;6.52;79.15;99555.47;341362;28;1222;-69
2022/11/14 00:58:32;;;;;;;15.77;9.88;;;;;;;6.54;79.42;99555.41;342197;28;1208;-69
2022/11/14 00:58:44;;;;;;;15.40;9.60;;;;;;;6.56;79.09;99548.47;342585;28;1300;-70